createdAt,value
2019-05-04T00:02:00.959Z,9.90
2019-05-04T00:04:31.142Z,9.90
2019-05-04T00:06:59.710Z,9.90
2019-05-04T00:09:28.265Z,9.80
2019-05-04T00:11:56.849Z,10.10
2019-05-04T00:14:25.329Z,10.30
2019-05-04T00:16:55.038Z,10.30
2019-05-04T00:19:24.618Z,10.30
2019-05-04T00:21:54.470Z,10.20
2019-05-04T00:24:24.853Z,10.10
2019-05-04T00:26:55.283Z,10.20
2019-05-04T00:29:25.164Z,10.20
2019-05-04T00:31:54.773Z,10.20
2019-05-04T00:34:31.129Z,10.00
2019-05-04T00:37:04.929Z,9.80
2019-05-04T00:39:35.530Z,9.40
2019-05-04T00:42:05.638Z,9.60
2019-05-04T00:44:35.256Z,9.80
2019-05-04T00:47:05.185Z,9.80
2019-05-04T00:49:34.707Z,9.60
2019-05-04T00:52:05.667Z,9.40
2019-05-04T00:54:35.974Z,9.60
2019-05-04T00:57:05.319Z,9.50
2019-05-04T00:59:35.103Z,9.20
2019-05-04T01:02:21.589Z,9.40
2019-05-04T01:04:50.125Z,9.50
2019-05-04T01:07:21.329Z,9.30
2019-05-04T01:09:48.905Z,8.90
2019-05-04T01:12:17.460Z,8.60
2019-05-04T01:14:45.997Z,8.70
2019-05-04T01:17:14.756Z,9.00
2019-05-04T01:19:44.837Z,9.20
2019-05-04T01:22:14.911Z,9.30
2019-05-04T01:24:44.964Z,9.40
2019-05-04T01:27:14.724Z,9.40
2019-05-04T01:29:45.411Z,9.40
2019-05-04T01:32:15.342Z,9.50
2019-05-04T01:34:46.145Z,9.60
2019-05-04T01:37:28.875Z,9.50
2019-05-04T01:39:51.083Z,9.60
2019-05-04T01:42:19.697Z,9.60
2019-05-04T01:44:48.283Z,9.60
2019-05-04T01:47:16.758Z,9.50
2019-05-04T01:49:45.595Z,9.60
2019-05-04T01:52:15.771Z,9.50
2019-05-04T01:54:45.674Z,9.60
2019-05-04T01:57:34.904Z,9.60
2019-05-04T02:00:02.678Z,9.50
2019-05-04T02:02:31.209Z,9.40
2019-05-04T02:04:59.841Z,9.50
2019-05-04T02:07:28.466Z,9.60
2019-05-04T02:09:57.366Z,9.60
2019-05-04T02:12:25.875Z,9.60
2019-05-04T02:14:55.013Z,9.70
2019-05-04T02:17:24.826Z,9.70
2019-05-04T02:19:55.525Z,9.60
2019-05-04T02:22:25.503Z,9.50
2019-05-04T02:24:55.705Z,9.60
2019-05-04T02:27:34.832Z,9.50
2019-05-04T02:30:16.715Z,9.60
2019-05-04T02:32:46.652Z,9.70
2019-05-04T02:35:16.691Z,9.60
2019-05-04T02:38:03.159Z,9.60
2019-05-04T02:40:32.977Z,9.60
2019-05-04T02:42:57.958Z,9.50
2019-05-04T02:45:26.816Z,9.50
2019-05-04T02:47:57.222Z,9.40
2019-05-04T02:50:36.515Z,9.40
2019-05-04T02:53:05.285Z,9.40
2019-05-04T02:55:35.884Z,9.40
2019-05-04T02:58:05.936Z,9.30
2019-05-04T03:00:36.320Z,9.40
2019-05-04T03:03:07.678Z,9.40
2019-05-04T03:05:36.121Z,9.40
2019-05-04T03:08:07.208Z,9.20
2019-05-04T03:10:36.407Z,9.20
2019-05-04T03:13:06.340Z,9.20
2019-05-04T03:15:36.565Z,9.30
2019-05-04T03:18:07.283Z,9.20
2019-05-04T03:20:40.469Z,9.20
2019-05-04T03:23:10.654Z,9.30
2019-05-04T03:25:39.346Z,9.20
2019-05-04T03:28:07.891Z,9.10
2019-05-04T03:30:39.691Z,8.90
2019-05-04T03:33:09.063Z,8.90
2019-05-04T03:35:50.741Z,9.10
2019-05-04T03:38:08.103Z,9.10
2019-05-04T03:40:36.844Z,9.00
2019-05-04T03:43:09.493Z,9.10
2019-05-04T03:45:55.463Z,9.10
2019-05-04T03:48:36.050Z,9.30
2019-05-04T03:51:06.610Z,9.00
2019-05-04T03:53:36.131Z,8.80
2019-05-04T03:56:06.305Z,8.90
2019-05-04T03:58:36.072Z,8.90
2019-05-04T04:01:06.287Z,8.90
2019-05-04T04:03:35.819Z,8.90
2019-05-04T04:06:06.512Z,8.90
2019-05-04T04:08:35.892Z,8.80
2019-05-04T04:11:05.695Z,8.70
2019-05-04T04:13:36.242Z,8.80
2019-05-04T04:16:08.870Z,8.80
2019-05-04T04:18:37.506Z,8.70
2019-05-04T04:21:06.214Z,8.80
2019-05-04T04:23:36.408Z,8.70
2019-05-04T04:26:12.668Z,8.70
2019-05-04T04:28:41.278Z,8.60
2019-05-04T04:31:09.818Z,8.70
2019-05-04T04:33:51.429Z,8.70
2019-05-04T04:36:08.599Z,8.50
2019-05-04T04:38:37.163Z,8.40
2019-05-04T04:41:06.554Z,8.20
2019-05-04T04:43:36.456Z,8.10
2019-05-04T04:46:06.738Z,7.90
2019-05-04T04:48:36.381Z,7.80
2019-05-04T04:51:06.113Z,7.10
2019-05-04T04:53:36.159Z,6.90
2019-05-04T04:56:07.267Z,6.90
2019-05-04T04:58:55.694Z,6.60
2019-05-04T05:01:28.849Z,6.50
2019-05-04T05:03:57.406Z,6.20
2019-05-04T05:06:26.146Z,6.10
2019-05-04T05:08:55.560Z,5.90
2019-05-04T05:11:25.613Z,5.60
2019-05-04T05:13:54.969Z,5.40
2019-05-04T05:16:25.449Z,5.20
2019-05-04T05:18:54.246Z,5.10
2019-05-04T05:21:27.477Z,5.10
2019-05-04T05:23:56.091Z,4.90
2019-05-04T05:26:24.844Z,4.70
2019-05-04T05:28:55.299Z,4.40
2019-05-04T05:31:40.410Z,4.20
2019-05-04T05:34:26.922Z,4.30
2019-05-04T05:36:56.743Z,4.00
2019-05-04T05:39:25.303Z,4.20
2019-05-04T05:41:55.709Z,4.00
2019-05-04T05:44:25.047Z,3.90
2019-05-04T05:46:58.502Z,4.00
2019-05-04T05:49:28.703Z,3.90
2019-05-04T05:52:04.531Z,3.90
2019-05-04T05:54:42.213Z,3.60
2019-05-04T05:57:19.867Z,3.60
2019-05-04T06:00:02.974Z,3.60
2019-05-04T06:02:49.604Z,3.60
2019-05-04T06:05:18.206Z,3.60
2019-05-04T06:07:48.369Z,3.40
2019-05-04T06:10:30.756Z,3.20
2019-05-04T06:13:17.245Z,3.20
2019-05-04T06:16:02.443Z,3.20
2019-05-04T06:18:41.693Z,3.30
2019-05-04T06:21:29.390Z,3.10
2019-05-04T06:24:09.698Z,3.20
2019-05-04T06:26:59.272Z,3.20
2019-05-04T06:29:29.789Z,3.20
2019-05-04T06:32:00.045Z,3.20
2019-05-04T06:34:31.658Z,3.20
2019-05-04T06:37:04.905Z,3.20
2019-05-04T06:39:37.813Z,3.10
2019-05-04T06:42:16.952Z,3.20
2019-05-04T06:44:51.942Z,3.20
2019-05-04T06:47:16.178Z,3.20
2019-05-04T06:49:49.227Z,3.10
2019-05-04T06:52:30.384Z,3.00
2019-05-04T06:55:11.009Z,3.10
2019-05-04T06:57:52.809Z,3.20
2019-05-04T07:00:20.085Z,3.10
2019-05-04T07:02:48.602Z,3.20
2019-05-04T07:05:20.962Z,3.30
2019-05-04T07:07:47.358Z,3.30
2019-05-04T07:10:15.837Z,3.50
2019-05-04T07:12:45.545Z,3.40
2019-05-04T07:15:18.391Z,3.50
2019-05-04T07:17:49.265Z,3.40
2019-05-04T07:20:16.802Z,3.40
2019-05-04T07:22:45.094Z,3.40
2019-05-04T07:25:17.545Z,3.60
2019-05-04T07:27:44.267Z,3.60
2019-05-04T07:30:14.876Z,3.80
2019-05-04T07:32:44.136Z,3.90
2019-05-04T07:35:17.348Z,3.80
2019-05-04T07:37:55.469Z,3.90
2019-05-04T07:40:35.511Z,4.00
2019-05-04T07:43:04.868Z,4.00
2019-05-04T07:45:34.973Z,3.80
2019-05-04T07:48:05.128Z,3.80
2019-05-04T07:50:35.370Z,3.80
2019-05-04T07:53:05.540Z,3.90
2019-05-04T07:55:34.966Z,4.00
2019-05-04T07:58:07.578Z,4.00
2019-05-04T08:00:34.625Z,3.90
2019-05-04T08:03:04.765Z,3.80
2019-05-04T08:05:43.109Z,3.90
2019-05-04T08:08:05.506Z,3.80
2019-05-04T08:10:34.650Z,3.90
2019-05-04T08:13:06.513Z,3.90
2019-05-04T08:15:37.219Z,3.90
2019-05-04T08:18:06.026Z,4.20
2019-05-04T08:20:35.539Z,4.40
2019-05-04T08:23:05.190Z,4.50
2019-05-04T08:25:34.440Z,4.40
2019-05-04T08:28:04.794Z,4.30
2019-05-04T08:30:35.276Z,4.50
2019-05-04T08:33:04.787Z,4.70
2019-05-04T08:35:35.215Z,4.50
2019-05-04T08:38:10.177Z,4.90
2019-05-04T08:40:35.136Z,5.00
2019-05-04T08:43:12.151Z,5.00
2019-05-04T08:45:37.132Z,5.00
2019-05-04T08:48:07.641Z,5.00
2019-05-04T08:50:40.757Z,5.10
2019-05-04T08:53:07.542Z,4.90
2019-05-04T08:55:55.532Z,5.00
2019-05-04T08:58:42.335Z,4.90
2019-05-04T09:01:15.652Z,5.00
2019-05-04T09:03:44.536Z,5.10
2019-05-04T09:06:23.434Z,5.20
2019-05-04T09:08:45.820Z,5.50
2019-05-04T09:11:18.761Z,5.30
2019-05-04T09:13:49.086Z,5.40
2019-05-04T09:16:15.106Z,5.70
2019-05-04T09:18:44.796Z,5.70
2019-05-04T09:21:15.909Z,5.70
2019-05-04T09:23:44.344Z,6.20
2019-05-04T09:26:15.102Z,6.50
2019-05-04T09:28:50.694Z,6.60
2019-05-04T09:31:14.791Z,7.00
2019-05-04T09:33:48.096Z,7.20
2019-05-04T09:36:15.450Z,7.20
2019-05-04T09:38:44.911Z,7.30
2019-05-04T09:41:15.267Z,7.30
2019-05-04T09:43:43.826Z,7.30
2019-05-04T09:46:14.159Z,7.20
2019-05-04T09:48:47.106Z,7.50
2019-05-04T09:51:17.885Z,7.60
2019-05-04T09:53:44.590Z,7.60
2019-05-04T09:56:18.826Z,7.70
2019-05-04T09:58:45.035Z,7.70
2019-05-04T10:01:13.665Z,7.90
2019-05-04T10:03:42.231Z,8.10
2019-05-04T10:06:10.773Z,7.90
2019-05-04T10:08:39.333Z,7.80
2019-05-04T10:11:27.696Z,7.70
2019-05-04T10:14:14.705Z,7.80
2019-05-04T10:16:56.874Z,7.60
2019-05-04T10:19:25.543Z,7.50
2019-05-04T10:21:56.004Z,7.80
2019-05-04T10:24:25.195Z,7.70
2019-05-04T10:26:58.894Z,7.60
2019-05-04T10:29:27.654Z,7.80
2019-05-04T10:31:56.248Z,7.80
2019-05-04T10:34:24.834Z,7.80
2019-05-04T10:36:55.153Z,8.10
2019-05-04T10:39:25.485Z,8.20
2019-05-04T10:41:53.814Z,8.10
2019-05-04T10:44:24.208Z,8.00
2019-05-04T10:46:54.480Z,7.90
2019-05-04T10:49:24.781Z,7.60
2019-05-04T10:51:55.015Z,7.70
2019-05-04T10:54:25.191Z,7.80
2019-05-04T10:56:54.362Z,7.90
2019-05-04T10:59:23.037Z,8.00
2019-05-04T11:01:54.208Z,8.30
2019-05-04T11:04:21.789Z,8.30
2019-05-04T11:06:50.317Z,8.00
2019-05-04T11:09:18.809Z,8.00
2019-05-04T11:11:47.338Z,8.20
2019-05-04T11:14:16.209Z,8.20
2019-05-04T11:16:45.314Z,8.10
2019-05-04T11:19:15.272Z,8.30
2019-05-04T11:21:44.253Z,8.50
2019-05-04T11:24:14.271Z,8.50
2019-05-04T11:26:47.677Z,8.70
2019-05-04T11:29:16.138Z,8.60
2019-05-04T11:31:45.229Z,8.70
2019-05-04T11:34:14.293Z,8.80
2019-05-04T11:36:44.510Z,8.20
2019-05-04T11:39:15.333Z,8.50
2019-05-04T11:41:44.310Z,8.80
2019-05-04T11:44:14.951Z,8.80
2019-05-04T11:46:56.083Z,8.90
2019-05-04T11:49:14.785Z,9.10
2019-05-04T11:51:45.042Z,9.10
2019-05-04T11:54:15.101Z,9.20
2019-05-04T11:56:45.154Z,9.30
2019-05-04T11:59:14.307Z,9.20
2019-05-04T12:01:44.761Z,9.50
2019-05-04T12:04:14.876Z,9.50
2019-05-04T12:06:45.082Z,9.60
2019-05-04T12:09:24.454Z,9.60
2019-05-04T12:11:54.290Z,9.50
2019-05-04T12:14:24.950Z,9.70
2019-05-04T12:16:54.654Z,9.90
2019-05-04T12:19:24.433Z,9.90
2019-05-04T12:21:55.271Z,9.70
2019-05-04T12:24:24.930Z,9.40
2019-05-04T12:26:55.132Z,9.40
2019-05-04T12:29:24.553Z,9.90
2019-05-04T12:31:54.931Z,10.30
2019-05-04T12:34:25.227Z,10.40
2019-05-04T12:36:54.984Z,10.70
2019-05-04T12:39:24.848Z,10.60
2019-05-04T12:41:54.298Z,10.80
2019-05-04T12:44:24.761Z,10.70
2019-05-04T12:46:55.165Z,10.70
2019-05-04T12:49:25.567Z,10.60
2019-05-04T12:51:54.498Z,10.70
2019-05-04T12:54:24.918Z,10.70
2019-05-04T12:56:55.392Z,10.80
2019-05-04T12:59:25.727Z,11.10
2019-05-04T13:01:54.371Z,10.70
2019-05-04T13:04:24.380Z,11.00
2019-05-04T13:06:55.346Z,10.80
2019-05-04T13:09:23.611Z,11.00
2019-05-04T13:11:54.861Z,11.00
2019-05-04T13:14:24.984Z,11.10
2019-05-04T13:16:52.985Z,11.10
2019-05-04T13:19:21.550Z,10.70
2019-05-04T13:21:50.018Z,10.70
2019-05-04T13:24:18.581Z,11.10
2019-05-04T13:26:47.135Z,11.20
2019-05-04T13:29:15.705Z,11.60
2019-05-04T13:31:44.710Z,12.00
2019-05-04T13:34:14.779Z,11.90
2019-05-04T13:36:45.348Z,12.10
2019-05-04T13:39:15.304Z,12.20
2019-05-04T13:41:44.979Z,12.20
2019-05-04T13:44:22.117Z,11.70
2019-05-04T13:46:44.480Z,10.60
2019-05-04T13:49:14.745Z,10.80
2019-05-04T13:51:45.462Z,10.90
2019-05-04T13:54:15.815Z,10.90
2019-05-04T13:56:51.197Z,11.20
2019-05-04T13:59:37.606Z,11.10
2019-05-04T14:02:24.317Z,11.00
2019-05-04T14:04:54.528Z,11.40
2019-05-04T14:07:23.020Z,11.40
2019-05-04T14:09:51.604Z,11.80
2019-05-04T14:12:20.142Z,12.30
2019-05-04T14:14:48.746Z,12.30
2019-05-04T14:17:17.386Z,12.30
2019-05-04T14:19:46.030Z,12.30
2019-05-04T14:22:15.088Z,12.20
2019-05-04T14:24:44.866Z,12.00
2019-05-04T14:27:15.145Z,11.50
2019-05-04T14:29:43.650Z,11.50
2019-05-04T14:32:14.295Z,11.70
2019-05-04T14:34:42.558Z,11.90
2019-05-04T14:37:11.094Z,11.80
2019-05-04T14:39:39.585Z,11.50
2019-05-04T14:42:08.046Z,10.90
2019-05-04T14:44:58.028Z,10.90
2019-05-04T14:47:27.574Z,11.30
2019-05-04T14:49:56.607Z,11.60
2019-05-04T14:52:25.237Z,11.30
2019-05-04T14:54:54.915Z,11.70
2019-05-04T14:57:24.687Z,11.90
2019-05-04T14:59:53.371Z,11.80
2019-05-04T15:02:21.904Z,11.70
2019-05-04T15:04:50.470Z,11.50
2019-05-04T15:07:19.010Z,11.30
2019-05-04T15:09:47.578Z,11.20
2019-05-04T15:12:16.471Z,11.10
2019-05-04T15:14:45.307Z,11.00
2019-05-04T15:17:14.617Z,10.90
2019-05-04T15:20:03.438Z,10.70
2019-05-04T15:22:34.201Z,10.80
2019-05-04T15:25:05.011Z,10.30
2019-05-04T15:27:35.055Z,10.30
2019-05-04T15:30:05.603Z,10.20
2019-05-04T15:32:34.954Z,9.60
2019-05-04T15:35:07.275Z,9.90
2019-05-04T15:37:36.179Z,9.90
2019-05-04T15:40:07.649Z,9.90
2019-05-04T15:42:36.197Z,10.00
2019-05-04T15:45:06.073Z,9.90
2019-05-04T15:47:34.960Z,9.80
2019-05-04T15:50:09.321Z,9.60
2019-05-04T15:52:39.470Z,9.20
2019-05-04T15:55:15.733Z,9.30
2019-05-04T15:57:45.934Z,9.30
2019-05-04T16:00:16.942Z,9.70
2019-05-04T16:02:45.505Z,9.80
2019-05-04T16:05:15.602Z,9.90
2019-05-04T16:07:44.820Z,9.70
2019-05-04T16:10:15.190Z,9.90
2019-05-04T16:12:43.883Z,10.20
2019-05-04T16:15:15.223Z,10.10
2019-05-04T16:17:44.160Z,10.10
2019-05-04T16:20:14.901Z,10.00
2019-05-04T16:22:44.500Z,10.00
2019-05-04T16:25:14.948Z,10.20
2019-05-04T16:27:45.294Z,10.30
2019-05-04T16:30:17.341Z,10.50
2019-05-04T16:32:45.835Z,10.30
2019-05-04T16:35:14.644Z,10.50
2019-05-04T16:37:45.169Z,10.70
2019-05-04T16:40:13.577Z,10.40
2019-05-04T16:42:44.869Z,9.70
2019-05-04T16:45:13.463Z,9.20
2019-05-04T16:47:42.095Z,9.00
2019-05-04T16:50:14.472Z,8.80
2019-05-04T16:53:00.625Z,8.20
2019-05-04T16:55:29.174Z,8.10
2019-05-04T16:57:58.365Z,8.00
2019-05-04T17:00:31.730Z,8.10
2019-05-04T17:03:21.475Z,7.90
2019-05-04T17:05:50.405Z,8.00
2019-05-04T17:08:18.938Z,8.00
2019-05-04T17:10:47.899Z,7.70
2019-05-04T17:13:16.725Z,7.80
2019-05-04T17:15:46.789Z,7.80
2019-05-04T17:18:15.643Z,8.00
2019-05-04T17:20:46.142Z,8.10
2019-05-04T17:23:15.105Z,8.20
2019-05-04T17:25:48.890Z,8.40
2019-05-04T17:28:25.118Z,8.30
2019-05-04T17:30:55.546Z,8.20
2019-05-04T17:33:24.925Z,8.20
2019-05-04T17:35:54.964Z,8.20
2019-05-04T17:38:24.596Z,8.10
2019-05-04T17:41:11.294Z,8.20
2019-05-04T17:43:57.645Z,8.10
2019-05-04T17:46:26.203Z,7.90
2019-05-04T17:48:54.730Z,7.70
2019-05-04T17:51:23.305Z,7.80
2019-05-04T17:53:51.843Z,7.80
2019-05-04T17:56:20.706Z,7.60
2019-05-04T17:58:49.241Z,7.90
2019-05-04T18:01:31.591Z,7.70
2019-05-04T18:04:01.786Z,7.70
2019-05-04T18:06:30.351Z,7.50
2019-05-04T18:09:00.483Z,7.50
2019-05-04T18:11:30.962Z,7.50
2019-05-04T18:14:06.890Z,7.40
2019-05-04T18:16:39.004Z,7.50
2019-05-04T18:19:08.565Z,7.20
2019-05-04T18:21:37.048Z,7.00
2019-05-04T18:24:05.646Z,6.80
2019-05-04T18:26:35.249Z,7.00
2019-05-04T18:29:04.860Z,7.00
2019-05-04T18:31:34.965Z,6.80
2019-05-04T18:34:04.862Z,6.70
2019-05-04T18:36:33.554Z,6.70
2019-05-04T18:39:02.157Z,6.90
2019-05-04T18:41:32.642Z,7.00
2019-05-04T18:44:04.618Z,6.90
2019-05-04T18:46:54.124Z,6.70
2019-05-04T18:49:24.949Z,6.70
2019-05-04T18:51:53.525Z,6.70
2019-05-04T18:54:21.982Z,6.60
2019-05-04T18:56:50.609Z,6.70
2019-05-04T18:59:19.162Z,6.50
2019-05-04T19:01:48.805Z,6.50
2019-05-04T19:04:17.629Z,6.60
2019-05-04T19:06:59.981Z,6.50
2019-05-04T19:09:30.125Z,6.30
2019-05-04T19:11:58.582Z,6.30
2019-05-04T19:14:27.074Z,6.20
2019-05-04T19:17:07.475Z,6.20
2019-05-04T19:19:25.846Z,6.10
2019-05-04T19:21:56.220Z,6.10
2019-05-04T19:24:37.761Z,6.10
2019-05-04T19:27:06.823Z,6.10
2019-05-04T19:29:35.443Z,6.00
2019-05-04T19:32:04.819Z,6.20
2019-05-04T19:34:33.573Z,6.30
2019-05-04T19:37:02.110Z,6.10
2019-05-04T19:39:30.758Z,6.20
2019-05-04T19:42:04.263Z,6.10
2019-05-04T19:44:34.556Z,6.20
2019-05-04T19:47:06.651Z,6.00
2019-05-04T19:49:34.964Z,5.80
2019-05-04T19:52:05.058Z,6.00
2019-05-04T19:54:34.989Z,5.90
2019-05-04T19:57:05.291Z,5.90
2019-05-04T19:59:34.940Z,5.90
2019-05-04T20:02:04.898Z,5.80
2019-05-04T20:04:34.435Z,5.70
2019-05-04T20:07:04.823Z,5.70
2019-05-04T20:09:35.070Z,5.70
2019-05-04T20:12:20.281Z,5.40
2019-05-04T20:15:08.543Z,5.30
2019-05-04T20:17:19.146Z,5.40
2019-05-04T20:19:47.780Z,5.40
2019-05-04T20:22:16.319Z,5.50
2019-05-04T20:24:45.624Z,5.40
2019-05-04T20:27:14.794Z,5.20
2019-05-04T20:29:45.112Z,5.20
2019-05-04T20:32:14.961Z,5.20
2019-05-04T20:34:44.841Z,5.30
2019-05-04T20:37:15.605Z,5.20
2019-05-04T20:39:45.522Z,5.10
2019-05-04T20:42:15.727Z,5.20
2019-05-04T20:44:49.233Z,5.30
2019-05-04T20:47:24.898Z,5.30
2019-05-04T20:49:55.090Z,5.40
2019-05-04T20:52:31.152Z,5.30
2019-05-04T20:54:59.732Z,5.30
2019-05-04T20:57:28.624Z,5.10
2019-05-04T20:59:57.182Z,5.20
2019-05-04T21:02:27.578Z,5.20
2019-05-04T21:05:06.502Z,5.20
2019-05-04T21:07:35.182Z,5.20
2019-05-04T21:10:07.822Z,5.30
2019-05-04T21:12:38.469Z,5.30
2019-05-04T21:15:07.984Z,5.30
2019-05-04T21:18:00.846Z,5.40
2019-05-04T21:20:25.005Z,5.40
2019-05-04T21:22:54.961Z,5.30
2019-05-04T21:25:24.698Z,5.20
2019-05-04T21:27:54.901Z,5.10
2019-05-04T21:30:24.926Z,5.20
2019-05-04T21:32:54.735Z,5.20
2019-05-04T21:35:23.463Z,5.10
2019-05-04T21:37:51.999Z,5.00
2019-05-04T21:40:20.567Z,4.90
2019-05-04T21:42:49.098Z,4.70
2019-05-04T21:45:31.502Z,4.70
2019-05-04T21:48:19.495Z,4.80
2019-05-04T21:50:44.226Z,4.90
2019-05-04T21:53:14.727Z,4.90
2019-05-04T21:55:44.374Z,4.90
2019-05-04T21:58:15.082Z,4.90
2019-05-04T22:00:45.314Z,4.90
2019-05-04T22:03:27.490Z,4.70
2019-05-04T22:05:56.342Z,4.70
2019-05-04T22:08:25.232Z,4.70
2019-05-04T22:10:55.283Z,4.60
2019-05-04T22:13:24.381Z,4.70
2019-05-04T22:15:54.356Z,4.70
2019-05-04T22:18:29.611Z,4.50
2019-05-04T22:20:56.338Z,4.70
2019-05-04T22:23:24.597Z,4.70
2019-05-04T22:25:55.172Z,4.60
2019-05-04T22:28:24.537Z,4.50
2019-05-04T22:30:53.217Z,4.40
2019-05-04T22:33:21.770Z,4.50
2019-05-04T22:35:50.302Z,4.50
2019-05-04T22:38:29.832Z,4.40
2019-05-04T22:40:58.714Z,4.30
2019-05-04T22:43:27.604Z,4.30
2019-05-04T22:45:56.498Z,4.10
2019-05-04T22:48:25.253Z,4.10
2019-05-04T22:50:54.904Z,4.30
2019-05-04T22:53:25.218Z,4.30
2019-05-04T22:55:55.394Z,4.30
2019-05-04T22:58:28.248Z,4.30
2019-05-04T23:01:07.515Z,4.20
2019-05-04T23:03:40.805Z,4.20
2019-05-04T23:06:09.341Z,4.20
2019-05-04T23:08:37.962Z,4.10
2019-05-04T23:11:06.570Z,4.00
2019-05-04T23:13:35.127Z,3.90
2019-05-04T23:16:05.940Z,4.10
2019-05-04T23:18:34.635Z,3.90
2019-05-04T23:21:04.475Z,4.10
2019-05-04T23:23:33.451Z,4.10
2019-05-04T23:26:01.975Z,4.20
2019-05-04T23:28:30.544Z,4.10
2019-05-04T23:30:59.086Z,4.00
2019-05-04T23:33:27.729Z,4.00
2019-05-04T23:35:56.272Z,4.10
2019-05-04T23:38:24.898Z,4.10
2019-05-04T23:40:54.485Z,4.00
2019-05-04T23:43:23.123Z,4.00
2019-05-04T23:45:52.030Z,3.80
2019-05-04T23:48:20.961Z,3.80
2019-05-04T23:50:49.643Z,3.70
2019-05-04T23:53:18.201Z,3.60
2019-05-04T23:55:46.803Z,3.60
2019-05-04T23:58:19.858Z,3.70
